Kaleli Ana — D6FM8 — position and weather

sailwx.info

Track history (hours):
 
Tides and Currents Weather Stations Pressure Air Temp Water Temp Dewpoint Dewpoint Depression Visibility Wind Speed Wind Dir Waves Ship Positions

Kaleli Ana

Last reported at 2017-Dec-16 14:12 UTC. Time now 2017-Dec-16 15:14 UTC.
Position N 40°22' E 014°28'.

Length 101 m; draft 5 m.

Type: Cargo ship. MMSI: 616886000.

Date/timePositionNaut miles runAvg speedWind from/ knotsBaromVisibWave heightAir tempDewpointWater temp
2017-Dec-16 14:12N 40°22' E 014°28'210.0
2017-Dec-16 13:59N 40°24' E 014°26'5 9.9
2017-Dec-16 13:30N 40°28' E 014°22'9 9.5
2017-Dec-16 12:34N 40°36' E 014°16'0 8.0
2017-Dec-16 12:30N 40°36' E 014°17'4 7.7
2017-Dec-16 12:00N 40°39' E 014°19'4 7.3
2017-Dec-16 11:30N 40°42' E 014°23'4 7.5
2017-Dec-16 11:00N 40°44' E 014°27'  
2017-Dec-12 10:18N 40°45' E 014°27'1 2.6
2017-Dec-12 09:54N 40°44' E 014°27'0 0.9
2017-Dec-12 09:28N 40°44' E 014°27'1 0.8
2017-Dec-12 08:13N 40°43' E 014°26'0 1.1
2017-Dec-12 08:00N 40°43' E 014°26'1 1.8
2017-Dec-12 07:26N 40°44' E 014°26'0 1.0
2017-Dec-12 07:00N 40°43' E 014°26'2 0.1
2017-Dec-11 18:48N 40°42' E 014°27'0 0.0
2017-Dec-11 17:38N 40°42' E 014°27'0 0.2
2017-Dec-11 17:24N 40°42' E 014°27'0 0.1
2017-Dec-11 16:54N 40°42' E 014°27'1 0.4
2017-Dec-11 14:20N 40°43' E 014°27'1 3.3
2017-Dec-11 14:00N 40°44' E 014°26'0 0.1
2017-Dec-11 13:28N 40°44' E 014°26'0 0.0
2017-Dec-11 13:00N 40°44' E 014°26'0 0.0
2017-Dec-11 12:30N 40°44' E 014°26'0 0.0
2017-Dec-11 12:00N 40°44' E 014°26'0 0.0
2017-Dec-11 11:30N 40°44' E 014°26'0 0.1
2017-Dec-11 11:00N 40°44' E 014°26'0 0.0
2017-Dec-11 10:29N 40°44' E 014°26'0 0.0
2017-Dec-11 10:00N 40°44' E 014°26'0 0.1
2017-Dec-11 09:30N 40°44' E 014°26'0 0.0
2017-Dec-11 09:00N 40°44' E 014°26'0 0.0
2017-Dec-11 08:30N 40°44' E 014°26'0 0.0
2017-Dec-11 08:00N 40°44' E 014°26'0 0.0
2017-Dec-11 07:30N 40°44' E 014°26'0 0.0
2017-Dec-10 20:41N 40°44' E 014°26'0 0.0
2017-Dec-10 20:30N 40°44' E 014°26'0 0.0
2017-Dec-10 20:00N 40°44' E 014°26'0 0.0
2017-Dec-10 19:30N 40°44' E 014°26'0 0.0
2017-Dec-10 19:00N 40°44' E 014°26'0 0.0
2017-Dec-10 18:30N 40°44' E 014°26'0 0.0
2017-Dec-10 18:00N 40°44' E 014°26'0 0.0
2017-Dec-10 17:30N 40°44' E 014°26'0 0.0
2017-Dec-10 17:00N 40°44' E 014°26'0 0.0
2017-Dec-10 16:29N 40°44' E 014°26'0 0.0
2017-Dec-10 16:00N 40°44' E 014°26'0 0.0
2017-Dec-10 15:30N 40°44' E 014°26'0 0.0
2017-Dec-10 15:00N 40°44' E 014°26'0 0.0
2017-Dec-10 14:30N 40°44' E 014°26'0 0.0
2017-Dec-10 13:59N 40°44' E 014°26'0 0.0
2017-Dec-10 13:30N 40°44' E 014°26'0 0.0
2017-Dec-10 12:59N 40°44' E 014°26'0 0.0
2017-Dec-10 12:30N 40°44' E 014°26'0 0.0
2017-Dec-10 12:00N 40°44' E 014°26'0 0.5
2017-Dec-10 11:30N 40°44' E 014°26'0 0.0
2017-Dec-10 10:58N 40°44' E 014°26'0 0.0
2017-Dec-10 10:30N 40°44' E 014°26'0 0.0
2017-Dec-10 10:00N 40°44' E 014°26'0 0.0
2017-Dec-10 09:30N 40°44' E 014°26'0 0.0
2017-Dec-10 09:01N 40°44' E 014°26'0 0.0
2017-Dec-10 08:30N 40°44' E 014°26'0 0.2
2017-Dec-10 08:00N 40°44' E 014°26'0 0.0
2017-Dec-10 07:30N 40°44' E 014°26'0 0.0
2017-Dec-10 07:00N 40°44' E 014°26'0 0.0
2017-Dec-10 06:30N 40°44' E 014°26'0 0.0
2017-Dec-09 15:27N 40°44' E 014°26'0 0.0
2017-Dec-09 13:36N 40°44' E 014°26'0 0.0
2017-Dec-09 13:15N 40°44' E 014°26'0 0.0
2017-Dec-09 12:59N 40°44' E 014°26'0 0.0
2017-Dec-09 12:26N 40°44' E 014°26'0 0.0
2017-Dec-09 11:06N 40°44' E 014°26'0 0.0
2017-Dec-09 10:42N 40°44' E 014°26'0 0.0
2017-Dec-09 10:27N 40°44' E 014°26'0 0.0
2017-Dec-09 09:46N 40°44' E 014°26'0 0.1
2017-Dec-09 09:09N 40°44' E 014°26'0 0.0
2017-Dec-09 07:39N 40°44' E 014°26'0 0.0
2017-Dec-08 22:11N 40°44' E 014°26'0 0.0
2017-Dec-08 22:01N 40°44' E 014°26'0 0.0
2017-Dec-08 21:30N 40°44' E 014°26'0 0.0
2017-Dec-08 21:00N 40°44' E 014°26'0 0.0
2017-Dec-08 20:30N 40°44' E 014°26'0 0.0
2017-Dec-08 19:59N 40°44' E 014°26'0 0.0
2017-Dec-08 19:31N 40°44' E 014°26'0 0.0
2017-Dec-08 19:00N 40°44' E 014°26'0 0.0
2017-Dec-08 18:30N 40°44' E 014°26'0 0.0
2017-Dec-08 18:00N 40°44' E 014°26'0 0.0
2017-Dec-08 17:31N 40°44' E 014°26'0 0.0
2017-Dec-08 17:00N 40°44' E 014°26'0 0.0
2017-Dec-08 16:30N 40°44' E 014°26'0 0.0
2017-Dec-08 16:00N 40°44' E 014°26'0 0.0
2017-Dec-08 15:30N 40°44' E 014°26'0 0.0
2017-Dec-08 15:00N 40°44' E 014°26'0 0.0
2017-Dec-08 14:29N 40°44' E 014°26'0 0.0
2017-Dec-08 14:00N 40°44' E 014°26'0 0.0
2017-Dec-08 13:30N 40°44' E 014°26'0 0.0
2017-Dec-08 13:00N 40°44' E 014°26'0 0.0
2017-Dec-08 12:30N 40°44' E 014°26'0 0.0
2017-Dec-08 11:59N 40°44' E 014°26'0 0.0
2017-Dec-08 11:30N 40°44' E 014°26'0 0.0
2017-Dec-08 10:59N 40°44' E 014°26'0 0.0
2017-Dec-08 10:30N 40°44' E 014°26'0 0.0
2017-Dec-08 09:56N 40°44' E 014°26'0 0.1
2017-Dec-08 09:30N 40°44' E 014°26'1 0.9
2017-Dec-08 08:56N 40°44' E 014°26'4 8.6
2017-Dec-08 08:30N 40°41' E 014°22'5 9.4
2017-Dec-08 08:00N 40°38' E 014°18'8 9.5
2017-Dec-08 07:07N 40°30' E 014°18'1 9.2
2017-Dec-08 07:00N 40°29' E 014°18'113 9.3
2017-Dec-07 18:48N 38°48' E 015°24'3 9.0
2017-Dec-07 18:27N 38°45' E 015°26'6 8.8
2017-Dec-07 17:45N 38°39' E 015°29'3 8.9
2017-Dec-07 17:26N 38°37' E 015°31'4 8.9
2017-Dec-07 17:00N 38°33' E 015°33'4 8.9
2017-Dec-07 16:30N 38°30' E 015°36'4 8.8
2017-Dec-07 16:00N 38°26' E 015°38'4 8.5
2017-Dec-07 15:30N 38°21' E 015°40'4 8.3
2017-Dec-07 15:00N 38°18' E 015°42'4 7.2
2017-Dec-07 14:27N 38°15' E 015°38'3 6.4
2017-Dec-07 14:00N 38°12' E 015°37'4 8.0
2017-Dec-07 13:30N 38°08' E 015°36'4 8.3
2017-Dec-07 13:00N 38°04' E 015°36'4 7.8
2017-Dec-07 12:30N 37°60' E 015°37'4 7.5
2017-Dec-07 12:00N 37°57' E 015°39'4 7.9
2017-Dec-07 11:30N 37°54' E 015°43'5 9.7
2017-Dec-07 10:58N 37°52' E 015°49'  
Track history (hours):
 
Tides and Currents Weather Stations Pressure Air Temp Water Temp Dewpoint Dewpoint Depression Visibility Wind Speed Wind Dir Waves Ship Positions

Kaleli Ana

Last reported at 2017-Dec-16 14:12 UTC. Time now 2017-Dec-16 15:14 UTC.
Position N 40°22' E 014°28'.

Length 101 m; draft 5 m.

Type: Cargo ship. MMSI: 616886000.

Date/timePositionNaut miles runAvg speedWind from/ knotsBaromVisibWave heightAir tempDewpointWater temp
2017-Dec-16 14:12N 40°22' E 014°28'210.0
2017-Dec-16 13:59N 40°24' E 014°26'5 9.9
2017-Dec-16 13:30N 40°28' E 014°22'9 9.5
2017-Dec-16 12:34N 40°36' E 014°16'0 8.0
2017-Dec-16 12:30N 40°36' E 014°17'4 7.7
2017-Dec-16 12:00N 40°39' E 014°19'4 7.3
2017-Dec-16 11:30N 40°42' E 014°23'4 7.5
2017-Dec-16 11:00N 40°44' E 014°27'  
2017-Dec-12 10:18N 40°45' E 014°27'1 2.6
2017-Dec-12 09:54N 40°44' E 014°27'0 0.9
2017-Dec-12 09:28N 40°44' E 014°27'1 0.8
2017-Dec-12 08:13N 40°43' E 014°26'0 1.1
2017-Dec-12 08:00N 40°43' E 014°26'1 1.8
2017-Dec-12 07:26N 40°44' E 014°26'0 1.0
2017-Dec-12 07:00N 40°43' E 014°26'2 0.1
2017-Dec-11 18:48N 40°42' E 014°27'0 0.0
2017-Dec-11 17:38N 40°42' E 014°27'0 0.2
2017-Dec-11 17:24N 40°42' E 014°27'0 0.1
2017-Dec-11 16:54N 40°42' E 014°27'1 0.4
2017-Dec-11 14:20N 40°43' E 014°27'1 3.3
2017-Dec-11 14:00N 40°44' E 014°26'0 0.1
2017-Dec-11 13:28N 40°44' E 014°26'0 0.0
2017-Dec-11 13:00N 40°44' E 014°26'0 0.0
2017-Dec-11 12:30N 40°44' E 014°26'0 0.0
2017-Dec-11 12:00N 40°44' E 014°26'0 0.0
2017-Dec-11 11:30N 40°44' E 014°26'0 0.1
2017-Dec-11 11:00N 40°44' E 014°26'0 0.0
2017-Dec-11 10:29N 40°44' E 014°26'0 0.0
2017-Dec-11 10:00N 40°44' E 014°26'0 0.1
2017-Dec-11 09:30N 40°44' E 014°26'0 0.0
2017-Dec-11 09:00N 40°44' E 014°26'0 0.0
2017-Dec-11 08:30N 40°44' E 014°26'0 0.0
2017-Dec-11 08:00N 40°44' E 014°26'0 0.0
2017-Dec-11 07:30N 40°44' E 014°26'0 0.0
2017-Dec-10 20:41N 40°44' E 014°26'0 0.0
2017-Dec-10 20:30N 40°44' E 014°26'0 0.0
2017-Dec-10 20:00N 40°44' E 014°26'0 0.0
2017-Dec-10 19:30N 40°44' E 014°26'0 0.0
2017-Dec-10 19:00N 40°44' E 014°26'0 0.0
2017-Dec-10 18:30N 40°44' E 014°26'0 0.0
2017-Dec-10 18:00N 40°44' E 014°26'0 0.0
2017-Dec-10 17:30N 40°44' E 014°26'0 0.0
2017-Dec-10 17:00N 40°44' E 014°26'0 0.0
2017-Dec-10 16:29N 40°44' E 014°26'0 0.0
2017-Dec-10 16:00N 40°44' E 014°26'0 0.0
2017-Dec-10 15:30N 40°44' E 014°26'0 0.0
2017-Dec-10 15:00N 40°44' E 014°26'0 0.0
2017-Dec-10 14:30N 40°44' E 014°26'0 0.0
2017-Dec-10 13:59N 40°44' E 014°26'0 0.0
2017-Dec-10 13:30N 40°44' E 014°26'0 0.0
2017-Dec-10 12:59N 40°44' E 014°26'0 0.0
2017-Dec-10 12:30N 40°44' E 014°26'0 0.0
2017-Dec-10 12:00N 40°44' E 014°26'0 0.5
2017-Dec-10 11:30N 40°44' E 014°26'0 0.0
2017-Dec-10 10:58N 40°44' E 014°26'0 0.0
2017-Dec-10 10:30N 40°44' E 014°26'0 0.0
2017-Dec-10 10:00N 40°44' E 014°26'0 0.0
2017-Dec-10 09:30N 40°44' E 014°26'0 0.0
2017-Dec-10 09:01N 40°44' E 014°26'0 0.0
2017-Dec-10 08:30N 40°44' E 014°26'0 0.2
2017-Dec-10 08:00N 40°44' E 014°26'0 0.0
2017-Dec-10 07:30N 40°44' E 014°26'0 0.0
2017-Dec-10 07:00N 40°44' E 014°26'0 0.0
2017-Dec-10 06:30N 40°44' E 014°26'0 0.0
2017-Dec-09 15:27N 40°44' E 014°26'0 0.0
2017-Dec-09 13:36N 40°44' E 014°26'0 0.0
2017-Dec-09 13:15N 40°44' E 014°26'0 0.0
2017-Dec-09 12:59N 40°44' E 014°26'0 0.0
2017-Dec-09 12:26N 40°44' E 014°26'0 0.0
2017-Dec-09 11:06N 40°44' E 014°26'0 0.0
2017-Dec-09 10:42N 40°44' E 014°26'0 0.0
2017-Dec-09 10:27N 40°44' E 014°26'0 0.0
2017-Dec-09 09:46N 40°44' E 014°26'0 0.1
2017-Dec-09 09:09N 40°44' E 014°26'0 0.0
2017-Dec-09 07:39N 40°44' E 014°26'0 0.0
2017-Dec-08 22:11N 40°44' E 014°26'0 0.0
2017-Dec-08 22:01N 40°44' E 014°26'0 0.0
2017-Dec-08 21:30N 40°44' E 014°26'0 0.0
2017-Dec-08 21:00N 40°44' E 014°26'0 0.0
2017-Dec-08 20:30N 40°44' E 014°26'0 0.0
2017-Dec-08 19:59N 40°44' E 014°26'0 0.0
2017-Dec-08 19:31N 40°44' E 014°26'0 0.0
2017-Dec-08 19:00N 40°44' E 014°26'0 0.0
2017-Dec-08 18:30N 40°44' E 014°26'0 0.0
2017-Dec-08 18:00N 40°44' E 014°26'0 0.0
2017-Dec-08 17:31N 40°44' E 014°26'0 0.0
2017-Dec-08 17:00N 40°44' E 014°26'0 0.0
2017-Dec-08 16:30N 40°44' E 014°26'0 0.0
2017-Dec-08 16:00N 40°44' E 014°26'0 0.0
2017-Dec-08 15:30N 40°44' E 014°26'0 0.0
2017-Dec-08 15:00N 40°44' E 014°26'0 0.0
2017-Dec-08 14:29N 40°44' E 014°26'0 0.0
2017-Dec-08 14:00N 40°44' E 014°26'0 0.0
2017-Dec-08 13:30N 40°44' E 014°26'0 0.0
2017-Dec-08 13:00N 40°44' E 014°26'0 0.0
2017-Dec-08 12:30N 40°44' E 014°26'0 0.0
2017-Dec-08 11:59N 40°44' E 014°26'0 0.0
2017-Dec-08 11:30N 40°44' E 014°26'0 0.0
2017-Dec-08 10:59N 40°44' E 014°26'0 0.0
2017-Dec-08 10:30N 40°44' E 014°26'0 0.0
2017-Dec-08 09:56N 40°44' E 014°26'0 0.1
2017-Dec-08 09:30N 40°44' E 014°26'1 0.9
2017-Dec-08 08:56N 40°44' E 014°26'4 8.6
2017-Dec-08 08:30N 40°41' E 014°22'5 9.4
2017-Dec-08 08:00N 40°38' E 014°18'8 9.5
2017-Dec-08 07:07N 40°30' E 014°18'1 9.2
2017-Dec-08 07:00N 40°29' E 014°18'113 9.3
2017-Dec-07 18:48N 38°48' E 015°24'3 9.0
2017-Dec-07 18:27N 38°45' E 015°26'6 8.8
2017-Dec-07 17:45N 38°39' E 015°29'3 8.9
2017-Dec-07 17:26N 38°37' E 015°31'4 8.9
2017-Dec-07 17:00N 38°33' E 015°33'4 8.9
2017-Dec-07 16:30N 38°30' E 015°36'4 8.8
2017-Dec-07 16:00N 38°26' E 015°38'4 8.5
2017-Dec-07 15:30N 38°21' E 015°40'4 8.3
2017-Dec-07 15:00N 38°18' E 015°42'4 7.2
2017-Dec-07 14:27N 38°15' E 015°38'3 6.4
2017-Dec-07 14:00N 38°12' E 015°37'4 8.0
2017-Dec-07 13:30N 38°08' E 015°36'4 8.3
2017-Dec-07 13:00N 38°04' E 015°36'4 7.8
2017-Dec-07 12:30N 37°60' E 015°37'4 7.5
2017-Dec-07 12:00N 37°57' E 015°39'4 7.9
2017-Dec-07 11:30N 37°54' E 015°43'5 9.7
2017-Dec-07 10:58N 37°52' E 015°49'  

Dump ship's entire track history